createdAt,value
2022-12-22T00:01:23.682Z,3.60
2022-12-22T00:04:10.364Z,3.50
2022-12-22T00:06:57.030Z,2.65
2022-12-22T00:09:43.588Z,3.30
2022-12-22T00:12:32.819Z,3.63
2022-12-22T00:15:20.102Z,3.42
2022-12-22T00:18:06.657Z,3.42
2022-12-22T00:20:53.325Z,3.80
2022-12-22T00:23:39.811Z,3.30
2022-12-22T00:26:28.374Z,4.20
2022-12-22T00:29:14.838Z,3.58
2022-12-22T00:32:02.044Z,3.47
2022-12-22T00:34:49.637Z,3.55
2022-12-22T00:37:36.101Z,2.95
2022-12-22T00:43:12.313Z,1.77
2022-12-22T00:45:59.262Z,1.65
2022-12-22T00:48:47.077Z,1.58
2022-12-22T00:51:33.582Z,1.65
2022-12-22T00:54:20.191Z,1.85
2022-12-22T00:57:07.246Z,1.60
2022-12-22T00:59:53.905Z,2.03
2022-12-22T01:02:40.526Z,1.98
2022-12-22T01:05:27.751Z,2.28
2022-12-22T01:08:15.349Z,2.20
2022-12-22T01:11:02.127Z,2.28
2022-12-22T01:13:48.632Z,2.40
2022-12-22T01:16:35.319Z,2.20
2022-12-22T01:19:21.985Z,2.20
2022-12-22T01:22:08.596Z,1.92
2022-12-22T01:24:55.123Z,2.53
2022-12-22T01:27:41.647Z,2.30
2022-12-22T01:30:29.095Z,3.35
2022-12-22T01:33:15.762Z,3.42
2022-12-22T01:36:02.239Z,3.25
2022-12-22T01:38:48.879Z,3.00
2022-12-22T01:41:40.146Z,3.63
2022-12-22T01:44:33.769Z,3.45
2022-12-22T01:50:24.704Z,3.83
2022-12-22T01:53:14.844Z,4.28
2022-12-22T01:56:07.676Z,3.40
2022-12-22T01:59:00.262Z,4.20
2022-12-22T02:01:49.222Z,3.25
2022-12-22T02:04:39.689Z,3.97
2022-12-22T02:07:38.895Z,3.58
2022-12-22T02:13:35.619Z,4.18
2022-12-22T02:19:11.213Z,3.95
2022-12-22T02:22:17.121Z,4.65
2022-12-22T02:25:21.350Z,3.75
2022-12-22T02:28:11.351Z,3.42
2022-12-22T02:30:58.578Z,3.30
2022-12-22T02:33:45.248Z,3.17
2022-12-22T02:39:38.633Z,4.35
2022-12-22T02:42:43.561Z,3.83
2022-12-22T02:48:45.104Z,2.75
2022-12-22T02:51:39.133Z,3.75
2022-12-22T02:54:27.473Z,3.92
2022-12-22T02:57:14.276Z,3.47
2022-12-22T03:00:00.814Z,4.30
2022-12-22T03:02:47.601Z,3.75
2022-12-22T03:05:34.350Z,3.67
2022-12-22T03:08:20.845Z,3.85
2022-12-22T03:11:07.461Z,2.40
2022-12-22T03:13:53.933Z,4.50
2022-12-22T03:16:40.577Z,4.45
2022-12-22T03:19:27.145Z,5.47
2022-12-22T03:22:13.622Z,3.92
2022-12-22T03:25:00.139Z,4.03
2022-12-22T03:27:26.732Z,4.45
2022-12-22T03:29:53.305Z,4.18
2022-12-22T03:32:20.434Z,3.03
2022-12-22T03:34:47.253Z,4.20
2022-12-22T03:37:13.801Z,4.30
2022-12-22T03:39:40.385Z,4.90
2022-12-22T03:42:26.949Z,4.75
2022-12-22T03:45:13.434Z,4.82
2022-12-22T03:47:40.092Z,4.70
2022-12-22T03:50:07.192Z,4.75
2022-12-22T03:52:33.767Z,5.15
2022-12-22T03:55:00.389Z,5.25
2022-12-22T03:57:27.081Z,4.95
2022-12-22T03:59:53.676Z,4.45
2022-12-22T04:02:20.366Z,4.50
2022-12-22T04:04:46.967Z,4.60
2022-12-22T04:07:13.687Z,5.45
2022-12-22T04:10:00.269Z,5.43
2022-12-22T04:12:46.819Z,4.28
2022-12-22T04:15:13.625Z,3.17
2022-12-22T04:17:40.228Z,4.60
2022-12-22T04:20:07.483Z,4.25
2022-12-22T04:22:34.165Z,4.57
2022-12-22T04:25:00.702Z,4.70
2022-12-22T04:27:27.246Z,4.25
2022-12-22T04:29:53.864Z,5.00
2022-12-22T04:32:20.576Z,3.67
2022-12-22T04:34:47.188Z,5.00
2022-12-22T04:37:17.405Z,4.10
2022-12-22T04:39:44.417Z,4.07
2022-12-22T04:42:11.084Z,4.35
2022-12-22T04:44:37.710Z,3.20
2022-12-22T04:47:04.639Z,4.60
2022-12-22T04:49:31.213Z,4.78
2022-12-22T04:51:58.007Z,4.32
2022-12-22T04:54:25.933Z,4.38
2022-12-22T04:56:53.287Z,5.07
2022-12-22T04:59:19.858Z,2.83
2022-12-22T05:01:46.458Z,5.50
2022-12-22T05:04:15.205Z,4.82
2022-12-22T05:06:44.009Z,4.43
2022-12-22T05:09:11.731Z,4.15
2022-12-22T05:11:38.730Z,5.22
2022-12-22T05:14:07.503Z,4.72
2022-12-22T05:16:34.253Z,4.65
2022-12-22T05:19:00.881Z,4.82
2022-12-22T05:21:27.642Z,4.78
2022-12-22T05:23:54.227Z,4.47
2022-12-22T05:26:20.845Z,4.53
2022-12-22T05:28:48.088Z,3.50
2022-12-22T05:31:19.551Z,3.85
2022-12-22T05:33:46.672Z,3.80
2022-12-22T05:36:13.546Z,4.70
2022-12-22T05:38:40.412Z,4.82
2022-12-22T05:41:08.065Z,3.85
2022-12-22T05:43:35.466Z,4.40
2022-12-22T05:46:07.689Z,4.07
2022-12-22T05:48:38.524Z,4.47
2022-12-22T05:51:08.841Z,4.38
2022-12-22T05:53:36.311Z,4.63
2022-12-22T05:56:02.954Z,3.42
2022-12-22T05:58:29.712Z,3.25
2022-12-22T06:00:58.427Z,3.30
2022-12-22T06:03:26.933Z,1.92
2022-12-22T06:05:54.802Z,2.13
2022-12-22T06:08:21.982Z,3.60
2022-12-22T06:10:48.691Z,4.05
2022-12-22T06:13:15.538Z,3.75
2022-12-22T06:15:42.256Z,4.30
2022-12-22T06:18:09.024Z,4.93
2022-12-22T06:20:35.589Z,3.83
2022-12-22T06:23:02.385Z,4.22
2022-12-22T06:25:29.198Z,5.05
2022-12-22T06:27:55.810Z,4.72
2022-12-22T06:30:29.106Z,16.38
2022-12-22T06:33:00.934Z,11.15
2022-12-22T06:35:27.796Z,15.27
2022-12-22T06:37:54.376Z,7.07
2022-12-22T06:40:21.059Z,13.88
2022-12-22T06:43:09.082Z,6.50
2022-12-22T06:45:39.805Z,9.45
2022-12-22T06:48:07.611Z,4.97
2022-12-22T06:50:35.256Z,5.43
2022-12-22T06:53:04.476Z,3.30
2022-12-22T06:55:31.070Z,2.63
2022-12-22T06:57:57.751Z,5.07
2022-12-22T07:00:25.144Z,2.53
2022-12-22T07:02:51.857Z,4.35
2022-12-22T07:05:18.657Z,3.78
2022-12-22T07:07:45.459Z,4.13
2022-12-22T07:10:12.119Z,3.25
2022-12-22T07:12:38.729Z,4.10
2022-12-22T07:15:06.212Z,1.88
2022-12-22T07:17:32.879Z,3.83
2022-12-22T07:19:59.525Z,3.90
2022-12-22T07:22:30.314Z,2.20
2022-12-22T07:24:57.904Z,4.05
2022-12-22T07:27:24.519Z,3.55
2022-12-22T07:29:51.118Z,3.58
2022-12-22T07:32:17.758Z,3.55
2022-12-22T07:34:44.286Z,3.85
2022-12-22T07:37:13.725Z,4.22
2022-12-22T07:39:40.418Z,4.47
2022-12-22T07:42:26.920Z,3.40
2022-12-22T07:44:53.508Z,3.83
2022-12-22T07:47:20.076Z,3.75
2022-12-22T07:50:06.822Z,3.50
2022-12-22T07:52:33.464Z,4.13
2022-12-22T07:55:00.242Z,3.60
2022-12-22T07:57:26.840Z,3.45
2022-12-22T07:59:54.095Z,3.45
2022-12-22T08:02:20.980Z,3.88
2022-12-22T08:04:47.762Z,3.63
2022-12-22T08:07:14.373Z,3.50
2022-12-22T08:09:40.921Z,4.53
2022-12-22T08:12:07.640Z,4.28
2022-12-22T08:14:34.186Z,1.88
2022-12-22T08:17:00.824Z,2.97
2022-12-22T08:19:27.493Z,4.07
2022-12-22T08:21:54.055Z,2.85
2022-12-22T08:24:21.241Z,3.35
2022-12-22T08:26:52.204Z,3.63
2022-12-22T08:29:24.417Z,3.40
2022-12-22T08:31:51.276Z,4.30
2022-12-22T08:34:18.066Z,4.20
2022-12-22T08:36:49.499Z,4.15
2022-12-22T08:39:17.177Z,3.58
2022-12-22T08:41:51.524Z,3.33
2022-12-22T08:44:22.848Z,3.65
2022-12-22T08:46:49.795Z,3.92
2022-12-22T08:49:16.644Z,3.28
2022-12-22T08:51:43.912Z,3.70
2022-12-22T08:54:10.885Z,4.13
2022-12-22T08:56:37.840Z,4.40
2022-12-22T08:59:07.896Z,5.22
2022-12-22T09:01:37.414Z,6.70
2022-12-22T09:04:04.935Z,6.38
2022-12-22T09:06:38.566Z,3.20
2022-12-22T09:09:09.800Z,4.82
2022-12-22T09:11:36.435Z,3.42
2022-12-22T09:14:04.115Z,3.95
2022-12-22T09:16:32.871Z,2.25
2022-12-22T09:19:00.176Z,4.15
2022-12-22T09:21:27.029Z,4.90
2022-12-22T09:23:54.893Z,3.78
2022-12-22T09:26:23.900Z,5.25
2022-12-22T09:28:51.125Z,3.47
2022-12-22T09:31:18.822Z,5.03
2022-12-22T09:33:45.426Z,4.60
2022-12-22T09:36:16.141Z,4.05
2022-12-22T09:38:43.011Z,3.65
2022-12-22T09:43:45.776Z,2.67
2022-12-22T09:46:31.812Z,2.78
2022-12-22T09:48:58.870Z,3.42
2022-12-22T09:51:27.379Z,2.58
2022-12-22T09:53:58.510Z,2.50
2022-12-22T09:56:27.623Z,3.28
2022-12-22T09:58:54.190Z,3.22
2022-12-22T10:04:29.655Z,4.03
2022-12-22T10:09:49.840Z,2.45
2022-12-22T10:12:20.886Z,1.83
2022-12-22T10:14:49.688Z,2.33
2022-12-22T10:19:54.518Z,3.20
2022-12-22T10:25:01.201Z,1.65
2022-12-22T10:27:31.369Z,1.23
2022-12-22T10:30:19.706Z,1.15
2022-12-22T10:38:27.597Z,1.17
2022-12-22T10:41:02.358Z,0.57
2022-12-22T10:43:34.968Z,0.90
2022-12-22T10:46:03.410Z,0.60
2022-12-22T10:48:35.412Z,1.05
2022-12-22T10:51:05.765Z,0.93
2022-12-22T11:01:38.335Z,2.95
2022-12-22T11:04:26.043Z,2.92
2022-12-22T11:06:54.433Z,3.10
2022-12-22T11:09:33.837Z,1.95
2022-12-22T11:12:26.481Z,3.33
2022-12-22T11:17:57.211Z,3.15
2022-12-22T11:23:31.107Z,3.60
2022-12-22T11:29:41.149Z,2.75
2022-12-22T11:32:36.536Z,3.70
2022-12-22T12:02:55.755Z,2.83
2022-12-22T12:05:51.555Z,2.25
2022-12-22T12:08:46.431Z,1.85
2022-12-22T12:11:41.121Z,2.13
2022-12-22T12:20:08.279Z,3.20
2022-12-22T12:33:42.584Z,1.90
2022-12-22T12:36:21.732Z,2.60
2022-12-22T12:44:28.102Z,3.13
2022-12-22T12:47:03.870Z,3.08
2022-12-22T12:52:14.612Z,3.38
2022-12-22T12:54:42.960Z,3.10
2022-12-22T12:59:50.030Z,4.20
2022-12-22T13:08:16.622Z,3.05
2022-12-22T13:10:46.769Z,3.03
2022-12-22T13:18:50.883Z,2.45
2022-12-22T13:24:26.219Z,4.22
2022-12-22T13:26:55.790Z,4.93
2022-12-22T13:32:04.137Z,2.28
2022-12-22T13:35:31.120Z,2.60
2022-12-22T13:37:49.028Z,2.22
2022-12-22T13:40:23.411Z,2.38
2022-12-22T13:45:46.966Z,2.05
2022-12-22T13:56:12.331Z,3.30
2022-12-22T13:58:45.397Z,2.20
2022-12-22T14:04:01.298Z,1.75
2022-12-22T14:06:38.931Z,1.75
2022-12-22T14:09:24.399Z,3.20
2022-12-22T14:14:31.844Z,1.88
2022-12-22T14:17:00.678Z,3.10
2022-12-22T14:19:33.879Z,3.45
2022-12-22T14:24:44.895Z,4.82
2022-12-22T14:27:21.785Z,4.40
2022-12-22T14:29:48.533Z,4.75
2022-12-22T14:32:36.468Z,6.15
2022-12-22T14:35:03.644Z,4.15
2022-12-22T14:37:32.965Z,4.43
2022-12-22T14:39:59.929Z,4.32
2022-12-22T14:42:26.767Z,5.18
2022-12-22T14:44:53.446Z,5.95
2022-12-22T14:47:25.577Z,9.93
2022-12-22T14:49:55.751Z,5.43
2022-12-22T14:55:06.180Z,5.85
2022-12-22T14:57:38.111Z,5.13
2022-12-22T15:00:27.524Z,3.70
2022-12-22T15:02:58.148Z,4.40
2022-12-22T15:05:36.314Z,4.80
2022-12-22T15:08:06.718Z,4.70
2022-12-22T15:10:42.892Z,4.25
2022-12-22T15:13:18.131Z,6.20
2022-12-22T15:15:44.681Z,5.38
2022-12-22T15:18:15.130Z,7.60
2022-12-22T15:20:42.104Z,7.40
2022-12-22T15:23:12.483Z,6.63
2022-12-22T15:25:40.274Z,4.32
2022-12-22T15:28:06.812Z,4.80
2022-12-22T15:30:33.647Z,8.27
2022-12-22T15:33:00.569Z,7.53
2022-12-22T15:38:12.111Z,12.93
2022-12-22T15:40:38.872Z,8.73
2022-12-22T15:43:05.526Z,17.50
2022-12-22T15:45:32.380Z,21.63
2022-12-22T15:47:59.380Z,20.27
2022-12-22T15:50:38.477Z,17.02
2022-12-22T15:53:09.649Z,12.13
2022-12-22T15:55:43.290Z,9.30
2022-12-22T15:58:13.396Z,9.02
2022-12-22T16:00:39.956Z,8.30
2022-12-22T16:03:07.354Z,10.13
2022-12-22T16:05:34.299Z,7.20
2022-12-22T16:08:01.903Z,7.68
2022-12-22T16:10:31.212Z,5.82
2022-12-22T16:13:02.911Z,7.25
2022-12-22T16:15:33.387Z,6.45
2022-12-22T16:18:01.501Z,6.70
2022-12-22T16:20:37.352Z,8.60
2022-12-22T16:23:06.380Z,7.00
2022-12-22T16:25:37.466Z,5.90
2022-12-22T16:28:06.172Z,7.00
2022-12-22T16:30:34.210Z,6.15
2022-12-22T16:33:01.051Z,5.68
2022-12-22T16:35:29.749Z,6.15
2022-12-22T16:37:58.613Z,8.10
2022-12-22T16:40:27.217Z,8.25
2022-12-22T16:45:59.246Z,9.50
2022-12-22T16:48:34.388Z,7.82
2022-12-22T16:51:01.589Z,8.45
2022-12-22T16:53:29.155Z,22.98
2022-12-22T16:55:56.180Z,32.58
2022-12-22T16:58:22.726Z,28.33
2022-12-22T17:00:49.369Z,19.17
2022-12-22T17:03:22.404Z,14.02
2022-12-22T17:05:53.233Z,8.25
2022-12-22T17:10:57.899Z,10.73
2022-12-22T17:13:24.906Z,7.00
2022-12-22T17:15:51.515Z,8.05
2022-12-22T17:18:21.337Z,7.82
2022-12-22T17:20:51.161Z,9.45
2022-12-22T17:26:08.438Z,16.77
2022-12-22T17:28:36.505Z,27.05
2022-12-22T17:31:03.433Z,11.70
2022-12-22T17:33:30.113Z,9.15
2022-12-22T17:35:57.150Z,10.90
2022-12-22T17:38:26.424Z,8.15
2022-12-22T17:40:53.393Z,9.23
2022-12-22T17:43:21.341Z,8.45
2022-12-22T17:45:48.285Z,11.02
2022-12-22T17:48:16.531Z,9.88
2022-12-22T17:50:44.688Z,8.85
2022-12-22T17:53:15.971Z,8.02
2022-12-22T17:58:29.027Z,13.05
2022-12-22T18:00:55.601Z,15.27
2022-12-22T18:03:22.448Z,16.10
2022-12-22T18:05:49.384Z,13.38
2022-12-22T18:08:19.257Z,13.68
2022-12-22T18:10:46.894Z,16.75
2022-12-22T18:13:17.446Z,15.05
2022-12-22T18:15:44.030Z,12.65
2022-12-22T18:18:14.490Z,9.75
2022-12-22T18:20:41.993Z,8.82
2022-12-22T18:23:22.415Z,10.00
2022-12-22T18:25:49.484Z,9.57
2022-12-22T18:28:17.280Z,9.10
2022-12-22T18:30:44.293Z,8.20
2022-12-22T18:33:11.132Z,9.23
2022-12-22T18:35:38.821Z,9.27
2022-12-22T18:38:06.269Z,9.27
2022-12-22T18:40:40.682Z,9.73
2022-12-22T18:43:13.759Z,9.30
2022-12-22T18:45:40.521Z,8.93
2022-12-22T18:48:07.081Z,10.55
2022-12-22T18:50:34.204Z,7.15
2022-12-22T18:53:06.219Z,8.70
2022-12-22T18:55:33.215Z,6.47
2022-12-22T18:58:00.557Z,8.23
2022-12-22T19:00:30.822Z,8.55
2022-12-22T19:02:59.514Z,8.32
2022-12-22T19:05:29.432Z,8.10
2022-12-22T19:07:56.866Z,7.85
2022-12-22T19:10:35.413Z,7.45
2022-12-22T19:13:04.814Z,8.75
2022-12-22T19:15:37.895Z,6.70
2022-12-22T19:18:05.737Z,6.85
2022-12-22T19:20:32.530Z,7.88
2022-12-22T19:23:00.595Z,7.82
2022-12-22T19:25:29.269Z,7.93
2022-12-22T19:28:03.124Z,6.47
2022-12-22T19:30:29.756Z,9.00
2022-12-22T19:33:01.560Z,8.70
2022-12-22T19:35:31.020Z,5.88
2022-12-22T19:38:00.573Z,8.30
2022-12-22T19:40:31.259Z,7.88
2022-12-22T19:42:59.438Z,8.45
2022-12-22T19:45:29.727Z,7.70
2022-12-22T19:47:57.443Z,8.82
2022-12-22T19:50:27.366Z,8.52
2022-12-22T19:52:55.517Z,7.85
2022-12-22T19:55:24.012Z,8.15
2022-12-22T19:57:51.871Z,8.68
2022-12-22T20:02:57.433Z,10.48
2022-12-22T20:08:01.773Z,15.48
2022-12-22T20:10:30.479Z,10.25
2022-12-22T20:13:01.838Z,8.57
2022-12-22T20:15:33.280Z,8.75
2022-12-22T20:18:00.871Z,8.25
2022-12-22T20:20:37.524Z,9.18
2022-12-22T20:25:40.115Z,7.43
2022-12-22T20:28:18.854Z,7.10
2022-12-22T20:30:46.447Z,7.93
2022-12-22T20:33:15.212Z,8.10
2022-12-22T20:35:43.262Z,7.20
2022-12-22T20:41:09.049Z,6.30
2022-12-22T20:43:36.818Z,8.52
2022-12-22T20:46:13.924Z,5.95
2022-12-22T20:48:44.043Z,9.77
2022-12-22T20:51:14.730Z,7.15
2022-12-22T20:53:42.619Z,5.63
2022-12-22T20:58:52.960Z,5.25
2022-12-22T21:01:19.871Z,4.43
2022-12-22T21:03:46.689Z,5.15
2022-12-22T21:09:00.374Z,7.88
2022-12-22T21:11:28.262Z,6.63
2022-12-22T21:13:56.324Z,7.38
2022-12-22T21:16:26.721Z,6.82
2022-12-22T21:18:54.362Z,6.53
2022-12-22T21:21:21.495Z,5.15
2022-12-22T21:23:48.133Z,6.97
2022-12-22T21:26:24.523Z,5.93
2022-12-22T21:28:52.258Z,4.32
2022-12-22T21:31:19.037Z,4.35
2022-12-22T21:33:47.234Z,6.85
2022-12-22T21:36:22.679Z,6.35
2022-12-22T21:38:53.597Z,7.00
2022-12-22T21:41:40.245Z,5.90
2022-12-22T21:44:06.792Z,6.95
2022-12-22T21:46:33.705Z,6.05
2022-12-22T21:49:00.249Z,6.38
2022-12-22T21:51:26.810Z,6.13
2022-12-22T21:53:53.363Z,6.20
2022-12-22T21:56:19.948Z,6.82
2022-12-22T21:58:46.610Z,6.82
2022-12-22T22:01:15.072Z,5.68
2022-12-22T22:03:42.474Z,6.25
2022-12-22T22:06:09.207Z,5.45
2022-12-22T22:08:35.781Z,5.38
2022-12-22T22:11:02.354Z,5.63
2022-12-22T22:13:28.881Z,5.18
2022-12-22T22:15:55.543Z,4.72
2022-12-22T22:18:22.154Z,4.32
2022-12-22T22:20:51.133Z,5.25
2022-12-22T22:23:17.874Z,4.18
2022-12-22T22:25:44.517Z,5.78
2022-12-22T22:28:11.715Z,4.75
2022-12-22T22:30:41.943Z,4.68
2022-12-22T22:35:35.134Z,6.03
2022-12-22T22:38:01.707Z,6.82
2022-12-22T22:40:28.391Z,5.90
2022-12-22T22:42:56.913Z,6.75
2022-12-22T22:45:24.290Z,7.22
2022-12-22T22:47:51.894Z,6.68
2022-12-22T22:50:19.980Z,7.72
2022-12-22T22:52:46.617Z,5.90
2022-12-22T22:55:14.465Z,6.55
2022-12-22T22:57:42.101Z,6.25
2022-12-22T23:00:11.817Z,5.45
2022-12-22T23:02:39.165Z,6.30
2022-12-22T23:05:07.487Z,7.10
2022-12-22T23:07:35.408Z,7.30
2022-12-22T23:10:02.437Z,5.57
2022-12-22T23:12:29.031Z,7.50
2022-12-22T23:14:55.640Z,7.07
2022-12-22T23:17:22.248Z,5.30
2022-12-22T23:19:48.949Z,7.80
2022-12-22T23:22:16.343Z,6.35
2022-12-22T23:24:43.315Z,7.53
2022-12-22T23:27:10.800Z,7.40
2022-12-22T23:29:38.361Z,6.85
2022-12-22T23:32:06.095Z,7.00
2022-12-22T23:34:33.854Z,7.43
2022-12-22T23:37:01.044Z,7.40
2022-12-22T23:39:28.010Z,7.15
2022-12-22T23:41:54.631Z,7.85
2022-12-22T23:44:21.448Z,7.50
2022-12-22T23:46:48.192Z,8.57
2022-12-22T23:49:14.746Z,7.60
2022-12-22T23:51:41.326Z,6.75
2022-12-22T23:54:07.937Z,6.88
2022-12-22T23:56:34.516Z,7.30
2022-12-22T23:59:01.057Z,8.50
